Latest Weather Observations for Truscott

IDW60801

Issued at 1:03 pm WST Monday 29 August 2016 (issued every 30 minutes, with the page automatically refreshed every 10 minutes)

About weather observations | Map of weather stations | Latest weather observations for WA | Other Formats
Station Details ID: 001020 Name: TRUSCOTT Lat: -14.09 Lon: 126.39 Height: 51.0 m
Data from the previous 72 hours. | See also: Recent months at Truscott
Date/Time
WST
Temp
°C
App
Temp
°C
Dew
Point
°C
Rel
Hum
%
Delta-T
°C
Wind Press
QNH
hPa
Press
MSL
hPa
Rain since
9am
mm
Dir  Spd
km/h
Gust
km/h
Spd
kts
Gust
kts
29/01:00pm 29.3 30.3 21.0 61 5.5 N 17 20 9 11 1011.0 1011.1 0.0
29/12:30pm 30.0 31.0 21.0 58 6.0 N 17 28 9 15 1011.0 - 0.0
29/12:00pm 29.5 30.0 20.9 60 5.7 N 19 - 10 - 1011.0 1011.5 0.0
29/11:30am 29.0 30.0 21.0 62 5.3 N 17 - 9 - 1012.0 - 0.0
29/11:00am 29.0 29.8 20.7 61 5.5 N 17 - 9 - 1012.0 1012.1 0.0
29/10:30am 29.0 30.4 21.0 62 5.3 N 15 - 8 - 1012.0 - 0.0
29/10:00am 29.9 31.8 21.3 60 5.8 N 13 - 7 - 1012.0 1012.6 0.0
29/09:30am 29.0 30.7 21.0 62 5.3 N 13 - 7 - 1013.0 - 0.0
29/09:00am 28.7 30.5 21.2 64 5.0 N 13 - 7 - 1013.0 1013.4 0.0
29/08:30am 28.0 29.7 21.0 65 4.7 N 13 - 7 - 1013.0 - 0.0
29/08:00am 27.1 29.5 21.6 72 3.7 N 11 - 6 - 1013.0 1013.2 0.0
29/07:30am 27.0 29.6 22.0 74 3.4 N 11 - 6 - 1013.0 - 0.0
29/07:00am 26.2 30.1 22.5 80 2.5 N 6 - 3 - 1013.0 1012.9 0.0
29/06:30am 24.0 28.0 22.0 88 1.3 E 4 - 2 - 1013.0 - 0.0
29/06:00am 22.5 26.1 22.0 97 0.3 E 6 - 3 - 1012.0 1012.3 0.0
29/05:39am 22.0 25.4 21.0 94 0.7 NE 4 - 2 - 1012.0 - 0.0
29/05:30am 22.0 25.1 21.0 94 0.7 ENE 6 - 3 - 1012.0 - 0.0
29/05:25am 22.0 25.1 21.0 94 0.7 ENE 6 - 3 - 1012.0 - 0.0
29/05:00am 22.1 26.5 21.3 95 0.5 CALM 0 - 0 - 1012.0 1011.8 0.0
29/04:47am 22.0 26.2 21.0 94 0.7 CALM 0 - 0 - 1012.0 - 0.0
29/04:30am 22.0 26.2 21.0 94 0.7 CALM 0 - 0 - 1011.0 - 0.0
29/04:29am 22.0 26.2 21.0 94 0.7 CALM 0 - 0 - 1011.0 - 0.0
29/04:00am 22.8 27.2 21.4 92 0.9 CALM 0 - 0 - 1012.0 1011.7 0.0
29/03:30am 23.0 27.2 21.0 88 1.3 CALM 0 - 0 - 1011.0 - 0.0
29/03:00am 22.7 27.0 21.2 91 1.0 CALM 0 - 0 - 1012.0 1011.8 0.0
29/02:30am 23.0 27.2 21.0 88 1.3 CALM 0 - 0 - 1012.0 - 0.0
29/02:00am 23.4 28.0 21.7 90 1.1 CALM 0 - 0 - 1012.0 1011.9 0.0
29/01:30am 23.0 26.8 21.0 88 1.3 SSE 2 - 1 - 1012.0 - 0.0
29/01:00am 22.9 27.2 21.2 90 1.1 CALM 0 - 0 - 1012.0 1012.1 0.0
29/12:38am 23.0 27.2 21.0 88 1.3 CALM 0 - 0 - 1012.0 - 0.0
29/12:30am 23.0 27.2 21.0 88 1.3 CALM 0 - 0 - 1012.0 - 0.0
29/12:20am 23.0 27.2 21.0 88 1.3 CALM 0 - 0 - 1012.0 - 0.0
29/12:00am 23.4 27.7 21.1 87 1.5 CALM 0 - 0 - 1012.0 1012.6 0.0
 
Date/Time
WST
Temp
°C
App
Temp
°C
Dew
Point
°C
Rel
Hum
%
Delta-T
°C
Wind Press
QNH
hPa
Press
MSL
hPa
Rain since
9am
mm
Dir  Spd
km/h
Gust
km/h
Spd
kts
Gust
kts
28/11:30pm 24.0 28.2 21.0 83 2.0 CALM 0 - 0 - 1013.0 - 0.0
28/11:00pm 24.3 28.4 20.8 81 2.3 CALM 0 - 0 - 1013.0 1012.8 0.0
28/10:30pm 25.0 28.1 21.0 78 2.6 NNE 6 - 3 - 1013.0 - 0.0
28/10:00pm 25.7 28.9 21.6 78 2.7 N 7 - 4 - 1013.0 1012.9 0.0
28/09:30pm 26.0 29.6 22.0 78 2.7 N 6 - 3 - 1013.0 - 0.0
28/09:00pm 25.8 29.1 21.5 77 2.9 NNE 6 - 3 - 1013.0 1012.8 0.0
28/08:30pm 26.0 28.9 21.0 74 3.3 NNE 7 - 4 - 1013.0 - 0.0
28/08:00pm 26.3 28.7 21.5 75 3.2 N 11 - 6 - 1012.0 1012.6 0.0
28/07:30pm 26.0 28.5 21.0 74 3.3 N 9 - 5 - 1012.0 - 0.0
28/07:00pm 26.5 29.0 21.7 75 3.2 N 11 - 6 - 1012.0 1012.0 0.0
28/06:30pm 27.0 29.1 21.0 69 4.0 N 11 - 6 - 1011.0 - 0.0
28/06:00pm 26.7 28.1 21.0 71 3.8 N 15 - 8 - 1011.0 1011.3 0.0
28/05:30pm 27.0 29.1 21.0 69 4.0 NNE 11 - 6 - 1011.0 - 0.0
28/05:00pm 27.4 29.0 21.4 70 4.0 NNE 15 - 8 - 1011.0 1010.8 0.0
28/04:30pm 28.0 29.4 21.0 65 4.7 N 15 - 8 - 1011.0 - 0.0
28/04:00pm 28.5 29.6 20.5 62 5.3 N 15 - 8 - 1011.0 1010.8 0.0
28/03:30pm 29.0 29.1 20.0 58 5.9 N 19 - 10 - 1011.0 - 0.0
28/03:00pm 29.0 29.3 20.7 61 5.5 N 20 - 11 - 1010.0 1010.5 0.0
28/02:30pm 29.0 28.9 20.0 58 5.9 N 20 - 11 - 1010.0 - 0.0
28/02:00pm 29.6 29.1 19.0 53 6.9 NNW 20 - 11 - 1010.0 1010.6 0.0
28/01:30pm 31.0 31.1 20.0 52 7.3 NNW 19 - 10 - 1011.0 - 0.0
28/01:00pm 30.3 29.9 19.0 50 7.4 N 19 - 10 - 1011.0 1011.4 0.0
28/12:30pm 31.0 30.6 18.0 45 8.4 N 17 - 9 - 1012.0 - 0.0
28/12:00pm 30.9 29.7 17.6 45 8.5 NNW 20 - 11 - 1012.0 1012.1 0.0
28/11:30am 31.0 30.0 18.0 45 8.4 N 20 - 11 - 1012.0 - 0.0
28/11:00am 29.8 30.3 19.2 53 6.9 N 15 - 8 - 1013.0 1012.9 0.0
28/10:30am 30.0 30.8 19.0 51 7.1 NNE 13 - 7 - 1013.0 - 0.0
28/10:00am 31.0 32.3 18.4 47 8.1 ENE 9 - 5 - 1014.0 1013.9 0.0
28/09:30am 30.0 31.2 19.0 51 7.1 E 11 - 6 - 1014.0 - 0.0
28/09:00am 29.9 31.9 19.9 55 6.6 ENE 9 - 5 - 1014.0 1014.6 0.0
28/08:30am 29.0 31.0 20.0 58 5.9 NE 9 - 5 - 1015.0 - 0.0
28/08:00am 27.8 30.3 21.1 67 4.5 ENE 9 - 5 - 1015.0 1014.7 0.0
28/07:30am 27.0 30.0 22.0 74 3.4 E 9 - 5 - 1014.0 - 0.0
28/07:00am 26.0 28.9 21.7 77 2.9 E 9 - 5 - 1015.0 1014.7 0.0
28/06:30am 24.0 27.6 22.0 88 1.3 ESE 6 - 3 - 1014.0 - 0.0
28/06:00am 23.2 26.6 22.0 93 0.8 SE 7 - 4 - 1014.0 1014.0 0.0
28/05:30am 23.0 26.4 22.0 94 0.7 SSE 7 - 4 - 1013.0 - 0.0
28/05:00am 23.0 26.3 21.8 93 0.8 SSE 7 - 4 - 1013.0 1013.4 0.0
28/04:30am 23.0 26.6 22.0 94 0.7 SE 6 - 3 - 1013.0 - 0.0
28/04:09am 23.0 26.6 22.0 94 0.7 SE 6 - 3 - 1013.0 - 0.0
28/04:00am 23.0 26.4 21.6 92 0.9 ESE 6 - 3 - 1013.0 1013.1 0.0
28/03:51am 23.0 26.6 22.0 94 0.7 ESE 6 - 3 - 1013.0 - 0.0
28/03:30am 23.0 26.6 22.0 94 0.7 ESE 6 - 3 - 1013.0 - 0.0
28/03:00am 23.3 26.9 22.1 93 0.8 E 6 - 3 - 1013.0 1013.2 0.0
28/02:30am 24.0 27.6 22.0 88 1.3 ESE 6 - 3 - 1013.0 - 0.0
28/02:00am 23.8 27.5 22.2 91 1.1 SSE 6 - 3 - 1013.0 1013.4 0.0
28/01:30am 24.0 27.4 22.0 88 1.3 ESE 7 - 4 - 1013.0 - 0.0
28/01:00am 24.2 29.0 22.1 88 1.4 CALM 0 - 0 - 1014.0 1013.7 0.0
28/12:30am 25.0 29.7 22.0 83 2.0 CALM 0 - 0 - 1014.0 - 0.0
28/12:00am 25.3 29.1 22.4 84 1.9 ENE 6 - 3 - 1014.0 1014.1 0.0
 
Date/Time
WST
Temp
°C
App
Temp
°C
Dew
Point
°C
Rel
Hum
%
Delta-T
°C
Wind Press
QNH
hPa
Press
MSL
hPa
Rain since
9am
mm
Dir  Spd
km/h
Gust
km/h
Spd
kts
Gust
kts
27/11:30pm 25.0 28.0 22.0 83 2.0 ENE 9 - 5 - 1014.0 - 0.0
27/11:00pm 25.5 28.5 22.0 81 2.3 ENE 9 - 5 - 1014.0 1014.3 0.0
27/10:50pm 26.0 29.0 22.0 78 2.7 ENE 9 - 5 - 1014.0 - 0.0
27/10:40pm 26.0 29.0 22.0 78 2.7 ENE 9 - 5 - 1014.0 - 0.0
27/10:30pm 26.0 28.6 22.0 78 2.7 ENE 11 - 6 - 1014.0 - 0.0
27/10:00pm 25.9 28.7 21.6 77 2.9 ENE 9 - 5 - 1014.0 1014.6 0.0
27/09:30pm 26.0 28.9 21.0 74 3.3 ENE 7 - 4 - 1015.0 - 0.0
27/09:00pm 25.9 28.1 20.5 72 3.5 NE 9 - 5 - 1014.0 1014.5 0.0
27/08:30pm 26.0 28.4 20.0 69 3.9 ENE 7 - 4 - 1014.0 - 0.0
27/08:00pm 26.2 28.5 19.8 68 4.2 ENE 7 - 4 - 1014.0 1014.2 0.0
27/07:30pm 26.0 28.5 21.0 74 3.3 NE 9 - 5 - 1014.0 - 0.0
27/07:00pm 26.4 28.8 20.9 72 3.6 NE 9 - 5 - 1013.0 1013.5 0.0
27/06:30pm 27.0 29.5 21.0 69 4.0 NNE 9 - 5 - 1013.0 - 0.0
27/06:00pm 26.8 29.4 22.0 75 3.2 N 11 - 6 - 1012.0 1012.6 0.0
27/05:30pm 27.0 29.3 22.0 74 3.4 N 13 - 7 - 1012.0 - 0.0
27/05:00pm 27.7 29.4 21.0 67 4.4 N 13 - 7 - 1012.0 1012.2 0.0
27/04:30pm 29.0 30.4 21.0 62 5.3 N 15 - 8 - 1012.0 - 0.0
27/04:00pm 29.2 29.7 20.1 58 6.0 N 17 - 9 - 1012.0 1011.9 0.0
27/03:30pm 30.0 30.5 20.0 55 6.6 N 17 - 9 - 1011.0 - 0.0
27/03:00pm 29.6 29.2 19.0 53 6.9 N 19 - 10 - 1011.0 1011.6 0.0
27/02:30pm 30.0 30.1 20.0 55 6.6 N 19 - 10 - 1012.0 - 0.0
27/02:00pm 30.4 30.5 19.1 50 7.4 N 17 - 9 - 1012.0 1011.9 0.0
27/01:30pm 31.0 30.6 19.0 48 7.8 N 19 - 10 - 1012.0 - 0.0
27/01:00pm 30.9 30.2 18.6 48 8.0 N 20 - 11 - 1012.0 1012.2 0.0
27/12:30pm 31.0 30.6 19.0 48 7.8 N 19 - 10 - 1012.0 - 0.0
27/12:00pm 31.0 29.7 15.8 40 9.5 ENE 17 - 9 - 1013.0 1013.1 0.0
27/11:30am 31.0 30.2 17.0 43 8.9 ENE 17 - 9 - 1014.0 - 0.0
27/11:00am 30.4 30.3 17.8 46 8.1 E 15 - 8 - 1014.0 1014.2 0.0
27/10:30am 30.0 28.8 17.0 45 8.2 E 19 - 10 - 1015.0 - 0.0
27/10:00am 29.1 28.9 17.6 50 7.3 E 15 - 8 - 1015.0 1015.3 0.0
27/09:30am 29.0 28.6 18.0 51 7.0 ENE 17 - 9 - 1015.0 - 0.0
27/09:00am 28.4 29.4 20.2 61 5.4 NE 15 - 8 - 1015.0 1015.5 0.0
27/08:30am 28.0 29.2 20.0 61 5.2 ENE 13 - 7 - 1015.0 - 0.0
27/08:00am 27.3 28.8 18.9 60 5.4 E 9 - 5 - 1015.0 1015.2 0.0
27/07:30am 27.0 26.5 15.0 47 7.3 ESE 11 - 6 - 1015.0 - 0.0
27/07:00am 25.0 24.3 11.9 44 7.5 SE 7 - 4 - 1015.0 1014.8 0.0
27/06:30am 23.0 21.9 10.0 43 7.1 ESE 6 - 3 - 1014.0 - 0.0
27/06:00am 20.9 19.6 9.8 49 6.0 ESE 7 - 4 - 1014.0 1014.1 0.0
27/05:30am 21.0 19.7 10.0 49 5.9 ESE 7 - 4 - 1014.0 - 0.0
27/05:00am 21.6 20.1 9.2 45 6.6 ESE 7 - 4 - 1013.0 1013.5 0.0
27/04:30am 21.0 20.0 11.0 52 5.5 ESE 7 - 4 - 1013.0 - 0.0
27/04:00am 21.3 20.7 11.6 54 5.4 ESE 6 - 3 - 1013.0 1013.1 0.0
27/03:30am 21.0 20.3 12.0 56 5.0 ESE 7 - 4 - 1013.0 - 0.0
27/03:00am 21.7 20.9 11.7 53 5.6 ESE 7 - 4 - 1013.0 1013.1 0.0
27/02:30am 21.0 20.3 12.0 56 5.0 ESE 7 - 4 - 1013.0 - 0.0
27/02:00am 21.4 20.7 12.0 55 5.3 E 7 - 4 - 1013.0 1012.9 0.0
27/01:30am 21.0 21.9 13.0 60 4.6 CALM 0 - 0 - 1013.0 - 0.0
27/01:00am 20.8 21.1 13.5 63 4.2 ESE 4 - 2 - 1013.0 1013.3 0.0
27/12:30am 21.0 22.3 14.0 64 4.1 CALM 0 - 0 - 1013.0 - 0.0
27/12:00am 21.9 23.1 13.8 60 4.7 CALM 0 - 0 - 1013.0 1013.4 0.0
 
Date/Time
WST
Temp
°C
App
Temp
°C
Dew
Point
°C
Rel
Hum
%
Delta-T
°C
Wind Press
QNH
hPa
Press
MSL
hPa
Rain since
9am
mm
Dir  Spd
km/h
Gust
km/h
Spd
kts
Gust
kts
26/11:30pm 22.0 22.3 15.0 64 4.2 SE 7 - 4 - 1013.0 - 0.0
26/11:00pm 22.5 23.4 16.1 67 3.9 E 6 - 3 - 1013.0 1013.6 0.0
26/10:30pm 23.0 23.7 16.0 64 4.2 ESE 7 - 4 - 1013.0 - 0.0
26/10:00pm 24.6 25.4 16.3 60 5.1 E 7 - 4 - 1014.0 1013.7 0.0
26/09:30pm 25.0 25.7 17.0 61 5.0 E 9 - 5 - 1013.0 - 0.0
26/09:00pm 25.4 25.9 16.5 58 5.5 ENE 9 - 5 - 1013.0 1013.6 0.0
26/08:30pm 26.0 26.3 16.0 54 6.1 ENE 9 - 5 - 1013.0 - 0.0
26/08:00pm 26.3 26.6 16.0 53 6.3 NE 9 - 5 - 1013.0 1013.4 0.0
26/07:30pm 27.0 26.9 16.0 51 6.8 NE 11 - 6 - 1013.0 - 0.0
26/07:00pm 27.0 27.0 16.3 52 6.6 NE 11 - 6 - 1013.0 1013.0 0.0
26/06:30pm 27.0 26.5 16.0 51 6.8 NE 13 - 7 - 1012.0 - 0.0
26/06:00pm 27.8 26.9 15.8 48 7.4 NE 15 - 8 - 1012.0 1011.9 0.0
26/05:30pm 28.0 26.4 16.0 48 7.4 NE 19 - 10 - 1011.0 - 0.0
26/05:00pm 29.0 26.6 14.4 41 8.8 NE 20 - 11 - 1011.0 1011.2 0.0
26/04:30pm 30.0 26.7 14.0 37 9.7 NE 24 - 13 - 1011.0 - 0.0
26/04:00pm 30.2 26.1 12.6 34 10.4 NE 26 - 14 - 1010.0 1010.5 0.0
26/03:30pm 31.0 27.1 12.0 31 11.2 NE 24 - 13 - 1010.0 - 0.0
26/03:00pm 30.9 25.7 10.3 28 11.8 NE 28 - 15 - 1010.0 1010.2 0.0
26/02:30pm 32.0 27.9 10.0 25 12.6 ENE 22 - 12 - 1010.0 - 0.0
26/02:00pm 32.2 28.0 9.7 25 12.8 NE 22 - 12 - 1010.0 1010.3 0.0
26/01:30pm 33.0 29.3 10.0 24 13.2 ENE 20 - 11 - 1010.0 - 0.0

Other Formats:

Comma delimited format used in spreadsheet applications
http://www.bom.gov.au/fwo/IDW60801/IDW60801.95101.axf

JavaScript Object Notation format (JSON) in row-major order
http://www.bom.gov.au/fwo/IDW60801/IDW60801.95101.json